Time;durP1;ratioP1;P1;durP2;ratioP2;P2;SDS_P1;SDS_P2;PMS_P1;PMS_P2;Temp;Humidity;BMP_temperature;BMP_pressure;BME280_temperature;BME280_humidity;BME280_pressure;Samples;Min_cycle;Max_cycle;Signal;HPM_P1;HPM_P2
2022/05/20 00:00:07;;;;;;;14.93;9.43;;;;;;;13.73;39.02;100122.13;1777842;80;22421;-71
2022/05/20 00:02:33;;;;;;;17.07;9.05;;;;;;;13.71;39.12;100110.78;1780623;79;21061;-68
2022/05/20 00:05:00;;;;;;;16.82;9.90;;;;;;;13.71;39.18;100114.84;1768603;80;21019;-67
2022/05/20 00:07:27;;;;;;;21.65;10.08;;;;;;;13.71;39.10;100106.73;1750006;79;21184;-67
2022/05/20 00:09:53;;;;;;;20.92;11.73;;;;;;;13.74;39.17;100111.06;1769386;79;21013;-64
2022/05/20 00:12:20;;;;;;;21.55;11.78;;;;;;;13.79;39.17;100104.34;1768623;79;21009;-65
2022/05/20 00:14:48;;;;;;;27.50;12.58;;;;;;;13.84;39.22;100103.56;1783017;79;21493;-69
2022/05/20 00:17:15;;;;;;;22.05;11.38;;;;;;;13.89;39.17;100081.96;1796767;79;21048;-67
2022/05/20 00:19:41;;;;;;;25.52;12.37;;;;;;;13.95;39.21;100096.61;1777300;79;22183;-67
2022/05/20 00:22:08;;;;;;;22.32;12.37;;;;;;;14.00;39.24;100090.95;1769907;79;20987;-67
2022/05/20 00:25:45;;;;;;;25.35;13.78;;;;;;;14.03;39.30;100079.59;1777298;79;20945;-68
2022/05/20 00:27:05;;;;;;;21.70;10.98;;;;;;;14.07;39.30;100088.81;1797357;79;21063;-68
2022/05/20 00:29:32;;;;;;;21.95;11.57;;;;;;;14.08;39.28;100094.50;1782009;78;20940;-66
2022/05/20 00:32:00;;;;;;;21.00;10.98;;;;;;;14.10;39.26;100097.77;1796708;78;20983;-69
2022/05/20 00:34:26;;;;;;;25.32;10.93;;;;;;;14.08;39.30;100100.73;1774294;79;21071;-74
2022/05/20 00:36:53;;;;;;;17.42;10.03;;;;;;;14.07;39.30;100088.81;1785095;79;20979;-65
2022/05/20 00:39:19;;;;;;;19.05;9.60;;;;;;;14.05;39.31;100085.57;1779898;78;21051;-65
2022/05/20 00:41:45;;;;;;;21.52;10.20;;;;;;;14.03;39.31;100084.47;1808603;79;21473;-67
2022/05/20 00:44:12;;;;;;;16.23;8.43;;;;;;;14.02;39.33;100087.42;1782218;79;21243;-69
2022/05/20 00:46:39;;;;;;;15.90;9.13;;;;;;;14.01;39.35;100092.55;1789141;79;20956;-67
2022/05/20 00:49:10;;;;;;;17.05;10.30;;;;;;;13.98;39.44;100091.20;1816328;79;21008;-69
2022/05/20 00:51:43;;;;;;;12.58;7.87;;;;;;;13.96;39.41;100098.22;1774528;78;21049;-72
2022/05/20 00:54:17;;;;;;;15.03;7.58;;;;;;;13.93;39.43;100091.99;1796587;79;20933;-69
2022/05/20 00:56:46;;;;;;;;;;;;;;;13.91;39.38;100087.37;1794496;78;21840;-65
2022/05/20 00:59:16;;;;;;;14.80;8.13;;;;;;;13.91;39.44;100087.91;1779094;78;20419;-66
2022/05/20 01:01:43;;;;;;;12.25;7.97;;;;;;;13.90;39.49;100087.66;1774061;78;21024;-67
2022/05/20 01:04:09;;;;;;;15.53;7.10;;;;;;;13.90;39.42;100084.95;1775350;80;21537;-68
2022/05/20 01:06:37;;;;;;;19.73;8.15;;;;;;;13.92;39.43;100095.77;1779972;80;21105;-70
2022/05/20 01:09:05;;;;;;;14.80;8.35;;;;;;;13.90;39.38;100099.28;1762984;80;21763;-65
2022/05/20 01:11:33;;;;;;;13.20;7.97;;;;;;;13.90;39.40;100095.77;1769211;80;20996;-66
2022/05/20 01:13:59;;;;;;;10.58;7.78;;;;;;;13.89;39.34;100096.30;1729621;80;21043;-65
2022/05/20 01:16:26;;;;;;;14.93;7.67;;;;;;;13.88;39.44;100083.84;1776537;80;21320;-66
2022/05/20 01:18:53;;;;;;;14.53;7.30;;;;;;;13.89;39.44;100075.20;1780016;80;21068;-65
2022/05/20 01:21:21;;;;;;;13.58;8.28;;;;;;;13.90;39.40;100074.13;1758603;80;21267;-66
2022/05/20 01:23:48;;;;;;;13.75;6.83;;;;;;;13.91;39.32;100077.09;1779849;80;21068;-67
2022/05/20 01:26:16;;;;;;;13.22;7.62;;;;;;;13.91;39.40;100083.31;1779742;80;21029;-66
2022/05/20 01:28:43;;;;;;;15.13;6.28;;;;;;;13.91;39.33;100081.96;1779845;80;21073;-65
2022/05/20 01:31:13;;;;;;;10.35;6.28;;;;;;;13.93;39.40;100082.52;1774798;80;21542;-66
2022/05/20 01:33:46;;;;;;;10.38;5.97;;;;;;;13.92;39.41;100078.72;1765334;80;21005;-67
2022/05/20 01:36:16;;;;;;;11.75;6.35;;;;;;;13.92;39.44;100079.54;1766755;80;20949;-67
2022/05/20 01:38:43;;;;;;;9.88;5.50;;;;;;;13.93;39.48;100075.77;1761743;80;21028;-64
2022/05/20 01:41:13;;;;;;;8.98;5.17;;;;;;;13.93;39.44;100066.84;1766455;80;21009;-65
2022/05/20 01:44:00;;;;;;;14.68;6.75;;;;;;;13.95;39.40;100070.92;1754225;80;21487;-67
2022/05/20 01:46:36;;;;;;;11.08;6.42;;;;;;;13.96;39.45;100074.41;1750637;80;21873;-63
2022/05/20 01:49:34;;;;;;;9.98;6.10;;;;;;;13.97;39.49;100070.64;1750877;80;20925;-63
2022/05/20 01:52:10;;;;;;;9.45;4.95;;;;;;;13.97;39.42;100065.23;1762052;80;21512;-65
2022/05/20 01:55:08;;;;;;;8.23;5.15;;;;;;;13.96;39.42;100063.59;1759004;80;20957;-66
2022/05/20 01:58:07;;;;;;;9.23;6.28;;;;;;;13.97;39.37;100070.11;1763653;80;21029;-64
2022/05/20 02:00:34;;;;;;;11.80;4.70;;;;;;;13.96;39.46;100071.70;1756696;80;21165;-70
2022/05/20 02:03:12;;;;;;;7.87;4.58;;;;;;;13.95;39.41;100076.33;1771980;79;20948;-66
2022/05/20 02:06:07;;;;;;;8.13;5.55;;;;;;;13.95;39.51;100077.69;1787178;79;21092;-66
2022/05/20 02:08:41;;;;;;;6.15;4.83;;;;;;;13.94;39.52;100085.52;1787268;79;21087;-68
2022/05/20 02:11:31;;;;;;;8.88;3.95;;;;;;;13.93;39.51;100081.70;1790411;79;21536;-67
2022/05/20 02:14:08;;;;;;;9.25;5.25;;;;;;;13.92;39.56;100070.08;1789719;79;21249;-67
2022/05/20 02:16:39;;;;;;;9.50;5.55;;;;;;;13.92;39.69;100064.66;1816367;79;21013;-65
2022/05/20 02:19:10;;;;;;;9.23;6.12;;;;;;;13.94;39.74;100063.06;1778287;79;21564;-66
2022/05/20 02:21:40;;;;;;;11.10;6.45;;;;;;;13.96;39.64;100064.41;1783103;79;20988;-66
2022/05/20 02:24:09;;;;;;;7.97;5.90;;;;;;;13.99;39.63;100063.09;1815591;78;21055;-66
2022/05/20 02:26:43;;;;;;;11.25;6.47;;;;;;;14.02;39.74;100069.31;1791957;79;21142;-67
2022/05/20 02:29:16;;;;;;;7.70;5.17;;;;;;;14.04;39.79;100065.00;1767392;79;21006;-67
2022/05/20 02:32:23;;;;;;;9.45;6.65;;;;;;;14.04;39.70;100062.30;1776718;79;20977;-67
2022/05/20 02:34:50;;;;;;;8.73;5.53;;;;;;;14.05;39.79;100065.28;1803333;79;20999;-67
2022/05/20 02:37:21;;;;;;;7.83;5.67;;;;;;;14.04;39.79;100071.77;1786600;79;21075;-69
2022/05/20 02:39:48;;;;;;;12.28;6.33;;;;;;;14.03;39.97;100070.95;1762551;80;21149;-66
2022/05/20 02:42:14;;;;;;;11.08;5.97;;;;;;;14.03;40.10;100072.30;1778421;80;21541;-71
2022/05/20 02:44:41;;;;;;;12.53;5.87;;;;;;;14.02;40.21;100073.91;1786184;80;20960;-66
2022/05/20 02:47:09;;;;;;;11.10;6.10;;;;;;;14.01;40.25;100073.09;1787276;79;21521;-67
2022/05/20 02:49:37;;;;;;;9.03;5.53;;;;;;;13.98;40.30;100071.73;1760627;80;21056;-68
2022/05/20 02:52:05;;;;;;;11.68;6.17;;;;;;;13.97;40.40;100078.75;1774856;80;21140;-66
2022/05/20 02:54:32;;;;;;;13.35;6.28;;;;;;;13.96;40.29;100077.94;1787725;79;21743;-66
2022/05/20 02:56:59;;;;;;;13.90;6.33;;;;;;;13.95;40.36;100081.73;1785194;80;21020;-66
2022/05/20 03:04:56;;;;;;;10.88;6.55;;;;;;;13.91;40.71;100088.72;1783102;80;21155;-66
2022/05/20 03:07:23;;;;;;;10.18;6.58;;;;;;;13.89;41.14;100092.24;1768091;80;21011;-65
2022/05/20 03:09:51;;;;;;;11.38;7.15;;;;;;;13.87;41.55;100097.62;1761403;80;20997;-67
2022/05/20 03:12:18;;;;;;;12.13;6.67;;;;;;;13.85;41.83;100101.14;1769933;80;20984;-67
2022/05/20 03:14:46;;;;;;;7.55;6.22;;;;;;;13.82;41.89;100115.98;1781037;80;20976;-67
2022/05/20 03:17:12;;;;;;;9.35;5.97;;;;;;;13.79;42.00;100107.05;1788173;80;21139;-67
2022/05/20 03:19:39;;;;;;;16.87;6.17;;;;;;;13.74;42.30;100107.55;1784156;80;21044;-69
2022/05/20 03:22:06;;;;;;;12.47;7.85;;;;;;;13.70;42.68;100114.55;1787865;80;21012;-66
2022/05/20 03:24:33;;;;;;;10.68;5.95;;;;;;;13.65;42.80;100119.92;1761772;80;21104;-65
2022/05/20 03:27:03;;;;;;;13.68;7.17;;;;;;;13.60;42.82;100127.45;1787438;79;21009;-66
2022/05/20 03:29:30;;;;;;;12.98;7.03;;;;;;;13.57;43.22;100125.81;1760593;80;21239;-66
2022/05/20 03:44:54;;;;;;;29.20;13.50;;;;;;;14.03;42.91;100099.88;1751047;78;22728;-68
2022/05/20 03:47:21;;;;;;;15.93;9.58;;;;;;;14.08;42.40;100095.31;1753753;81;20948;-66
2022/05/20 03:49:47;;;;;;;16.82;10.72;;;;;;;14.18;42.46;100094.02;1753762;81;21976;-67
2022/05/20 03:52:15;;;;;;;27.80;10.72;;;;;;;14.24;42.16;100096.21;1753633;81;20944;-65
2022/05/20 03:54:42;;;;;;;19.80;12.28;;;;;;;14.27;42.43;100111.37;1725995;81;21026;-66
2022/05/20 03:57:09;;;;;;;22.85;13.25;;;;;;;14.28;42.27;100108.95;1740709;81;21603;-65
2022/05/20 03:59:38;;;;;;;25.52;12.65;;;;;;;14.27;42.35;100105.96;1720830;83;20904;-66
2022/05/20 04:02:07;;;;;;;16.60;9.55;;;;;;;14.26;42.48;100117.04;1718463;83;21897;-75
2022/05/20 04:04:46;;;;;;;23.50;11.20;;;;;;;14.24;42.66;100117.33;1689262;83;20935;-66
2022/05/20 04:07:23;;;;;;;21.50;10.48;;;;;;;14.21;42.83;100135.41;1717270;83;20983;-65
2022/05/20 04:09:51;;;;;;;19.12;11.00;;;;;;;14.16;43.03;100133.22;1717437;83;20998;-67
2022/05/20 04:12:32;;;;;;;24.15;10.08;;;;;;;14.13;43.04;100148.63;1717355;83;21039;-66
2022/05/20 04:14:59;;;;;;;16.60;10.28;;;;;;;14.09;43.15;100148.88;1717787;83;21238;-65
2022/05/20 04:17:25;;;;;;;17.67;10.53;;;;;;;14.04;43.32;100155.08;1717345;83;21035;-67
2022/05/20 04:19:52;;;;;;;24.02;11.83;;;;;;;14.00;43.54;100150.45;1719064;83;20975;-65
2022/05/20 04:22:27;;;;;;;27.85;16.25;;;;;;;13.96;43.83;100158.25;1718696;83;20991;-67
2022/05/20 04:24:53;;;;;;;27.30;14.13;;;;;;;13.93;44.24;100162.84;1717802;83;21117;-66
2022/05/20 04:27:20;;;;;;;29.12;17.12;;;;;;;13.88;44.69;100164.97;1747210;82;21173;-66
2022/05/20 04:29:47;;;;;;;29.10;14.23;;;;;;;13.86;44.98;100167.67;1750501;82;21588;-66
2022/05/20 04:32:13;;;;;;;25.72;12.82;;;;;;;13.82;45.60;100161.94;1753999;80;20991;-65
2022/05/20 04:34:41;;;;;;;23.92;14.78;;;;;;;13.78;45.90;100171.66;1753279;80;21012;-66
2022/05/20 04:37:07;;;;;;;30.60;14.40;;;;;;;13.72;46.76;100178.08;1751063;82;21071;-73
2022/05/20 04:39:35;;;;;;;24.72;14.45;;;;;;;13.64;47.55;100181.27;1721376;83;22170;-66
2022/05/20 04:47:33;;;;;;;36.38;18.05;;;;;;;13.23;51.74;100206.30;1720959;83;21011;-68
2022/05/20 04:50:02;;;;;;;32.95;17.45;;;;;;;13.02;53.97;100206.03;1721715;83;21462;-68
2022/05/20 04:52:28;;;;;;;35.00;18.55;;;;;;;12.83;55.61;100208.78;1742327;82;21088;-67
2022/05/20 04:54:57;;;;;;;33.78;19.73;;;;;;;12.64;57.94;100212.33;1747687;82;20998;-69
2022/05/20 04:57:34;;;;;;;35.03;18.35;;;;;;;12.45;59.35;100212.34;1750302;82;21540;-68
2022/05/20 05:00:11;;;;;;;34.95;20.88;;;;;;;12.31;61.08;100204.33;1750475;82;20968;-69
2022/05/20 05:02:38;;;;;;;34.27;19.55;;;;;;;12.15;62.52;100195.20;1755910;80;21087;-67
2022/05/20 05:05:08;;;;;;;39.67;19.35;;;;;;;12.02;63.83;100190.16;1749146;82;21253;-67
2022/05/20 05:07:39;;;;;;;34.55;20.05;;;;;;;11.93;65.06;100194.33;1720344;83;20967;-69
2022/05/20 05:10:07;;;;;;;34.03;18.37;;;;;;;11.85;66.21;100193.91;1720196;83;20968;-68
2022/05/20 05:12:35;;;;;;;34.85;20.82;;;;;;;11.77;67.25;100196.49;1738601;82;21010;-68
2022/05/20 05:15:02;;;;;;;30.72;19.10;;;;;;;11.71;69.04;100202.30;1746768;82;21086;-76
2022/05/20 05:20:18;;;;;;;38.53;21.23;;;;;;;11.58;71.87;100213.92;1781088;80;20960;-66
2022/05/20 05:22:44;;;;;;;42.20;22.15;;;;;;;11.52;72.31;100217.58;1762311;80;21063;-68
2022/05/20 05:25:12;;;;;;;42.10;23.42;;;;;;;11.48;72.86;100220.48;1748074;82;21515;-67
2022/05/20 05:27:39;;;;;;;36.88;21.68;;;;;;;11.45;73.43;100216.41;1750276;82;21039;-68
2022/05/20 05:30:11;;;;;;;42.78;20.95;;;;;;;11.43;74.07;100219.86;1750162;82;21171;-67
2022/05/20 05:32:39;;;;;;;57.00;27.25;;;;;;;11.41;75.24;100217.95;1720737;82;20992;-73
2022/05/20 05:35:10;;;;;;;33.78;20.08;;;;;;;11.41;75.09;100218.48;1749577;82;21001;-68
2022/05/20 05:37:38;;;;;;;45.67;27.25;;;;;;;11.41;75.70;100231.95;1748741;82;20972;-67
2022/05/20 05:40:08;;;;;;;32.67;21.02;;;;;;;11.40;77.13;100206.07;1748220;82;21594;-67
2022/05/20 05:42:34;;;;;;;28.42;18.87;;;;;;;11.44;77.90;100212.08;1741888;81;21234;-67
2022/05/20 05:45:03;;;;;;;27.73;15.98;;;;;;;11.50;78.81;100204.91;1746603;81;20928;-68
2022/05/20 05:47:30;;;;;;;30.08;18.25;;;;;;;11.59;80.10;100196.18;1746760;81;20971;-69
2022/05/20 05:49:56;;;;;;;27.32;16.40;;;;;;;11.67;80.60;100189.03;1746723;82;20974;-67
2022/05/20 05:52:23;;;;;;;34.40;18.70;;;;;;;11.78;81.69;100188.17;1747570;81;21036;-65
2022/05/20 05:54:49;;;;;;;23.32;14.35;;;;;;;11.87;82.28;100179.14;1748721;81;21143;-68
2022/05/20 05:57:16;;;;;;;24.47;19.20;;;;;;;11.98;81.97;100170.68;1746816;82;21559;-67
2022/05/20 05:59:43;;;;;;;24.87;12.35;;;;;;;12.13;81.43;100165.52;1746785;82;20979;-68
2022/05/20 06:02:09;;;;;;;27.93;15.28;;;;;;;12.31;81.24;100159.83;1746578;82;20984;-69
2022/05/20 06:04:36;;;;;;;22.95;14.70;;;;;;;12.46;81.08;100153.81;1755522;80;20909;-67
2022/05/20 06:07:05;;;;;;;24.50;15.13;;;;;;;12.58;80.99;100151.79;1781066;80;20913;-68
2022/05/20 06:09:32;;;;;;;29.30;17.32;;;;;;;12.71;81.86;100155.45;1781215;80;21533;-66
2022/05/20 06:12:01;;;;;;;26.40;16.25;;;;;;;12.80;81.60;100153.96;1764073;80;20939;-66
2022/05/20 06:14:27;;;;;;;23.38;15.55;;;;;;;12.90;81.03;100143.81;1752282;80;21007;-66
2022/05/20 06:16:53;;;;;;;17.42;11.90;;;;;;;13.01;80.35;100138.77;1776338;79;21570;-66
2022/05/20 06:19:20;;;;;;;16.77;11.83;;;;;;;13.15;80.09;100133.27;1750219;82;21817;-66
2022/05/20 06:21:48;;;;;;;21.17;13.88;;;;;;;13.31;80.08;100142.34;1750694;80;21551;-69
2022/05/20 06:24:14;;;;;;;22.80;13.25;;;;;;;13.44;80.93;100141.91;1775749;79;21003;-67
2022/05/20 06:26:41;;;;;;;25.02;15.40;;;;;;;13.54;81.73;100138.77;1781042;80;21682;-67
2022/05/20 06:29:08;;;;;;;26.97;15.80;;;;;;;13.65;82.45;100134.79;1780984;80;21067;-67
2022/05/20 06:31:35;;;;;;;19.65;13.32;;;;;;;13.70;82.97;100132.94;1776737;80;21194;-67
2022/05/20 06:34:02;;;;;;;25.27;13.90;;;;;;;13.78;82.62;100131.63;1749016;82;21003;-66
2022/05/20 06:41:59;;;;;;;28.23;17.80;;;;;;;14.09;81.37;100136.17;1777092;80;21796;-70
2022/05/20 06:44:28;;;;;;;27.30;17.12;;;;;;;14.23;81.82;100141.92;1766393;79;21349;-68
2022/05/20 06:46:55;;;;;;;20.82;14.87;;;;;;;14.36;81.75;100142.83;1746482;82;20951;-66
2022/05/20 06:49:21;;;;;;;34.88;18.10;;;;;;;14.46;81.42;100151.00;1746765;82;20904;-68
2022/05/20 06:51:50;;;;;;;24.20;17.70;;;;;;;14.49;80.94;100149.64;1750005;80;22168;-68
2022/05/20 06:54:17;;;;;;;25.17;17.07;;;;;;;14.52;81.30;100151.30;1768700;80;21032;-67
2022/05/20 06:56:44;;;;;;;34.53;21.27;;;;;;;14.58;82.98;100144.02;1749978;82;21940;-68
2022/05/20 06:59:11;;;;;;;27.42;20.27;;;;;;;14.59;83.46;100141.56;1749953;82;21556;-68
2022/05/20 07:01:38;;;;;;;30.77;19.17;;;;;;;14.65;83.85;100137.80;1749490;82;21133;-66
2022/05/20 07:04:06;;;;;;;27.07;16.37;;;;;;;14.73;83.76;100137.28;1748393;82;20897;-71
2022/05/20 07:06:35;;;;;;;19.75;13.88;;;;;;;14.82;83.09;100125.66;1748340;82;21087;-69
2022/05/20 07:09:02;;;;;;;16.60;10.93;;;;;;;14.95;81.33;100130.31;1762212;80;21250;-67
2022/05/20 07:11:29;;;;;;;28.07;10.08;;;;;;;15.11;79.85;100127.35;1777787;80;20972;-67
2022/05/20 07:13:58;;;;;;;15.68;10.45;;;;;;;15.25;77.72;100129.80;1755245;80;21540;-70
2022/05/20 07:16:29;;;;;;;28.30;11.90;;;;;;;15.39;76.71;100130.65;1747881;82;21480;-64
2022/05/20 07:18:56;;;;;;;16.82;10.65;;;;;;;15.54;76.13;100123.91;1750341;82;21044;-67
2022/05/20 07:21:22;;;;;;;20.72;11.57;;;;;;;15.67;75.41;100137.72;1749942;82;21468;-67
2022/05/20 07:23:50;;;;;;;20.27;13.20;;;;;;;15.77;75.35;100137.45;1750043;82;20960;-66
2022/05/20 07:26:17;;;;;;;19.17;13.38;;;;;;;15.86;75.30;100137.16;1749153;82;21078;-65
2022/05/20 07:28:44;;;;;;;15.30;12.18;;;;;;;15.89;74.78;100136.59;1749978;81;21007;-67
2022/05/20 07:31:11;;;;;;;20.68;11.95;;;;;;;15.90;74.62;100136.88;1750068;82;21090;-65
2022/05/20 07:33:39;;;;;;;15.98;11.45;;;;;;;15.93;74.31;100139.03;1751693;80;21097;-69
2022/05/20 07:36:06;;;;;;;23.98;12.82;;;;;;;16.00;74.53;100132.80;1741872;82;21034;-73
2022/05/20 07:38:34;;;;;;;14.93;10.28;;;;;;;16.04;74.37;100133.32;1745092;80;21516;-68
2022/05/20 07:41:01;;;;;;;16.85;12.30;;;;;;;16.10;73.89;100132.23;1742279;82;21072;-66
2022/05/20 07:43:27;;;;;;;22.85;12.90;;;;;;;16.20;73.65;100131.93;1740785;82;21410;-67
2022/05/20 07:45:54;;;;;;;17.60;12.73;;;;;;;16.28;73.54;100138.14;1741030;80;21127;-77
2022/05/20 07:48:20;;;;;;;16.97;11.30;;;;;;;16.35;73.20;100142.20;1743515;82;21003;-65
2022/05/20 07:50:50;;;;;;;17.35;10.32;;;;;;;16.40;73.30;100153.59;1742624;80;22244;-65
2022/05/20 07:53:20;;;;;;;18.35;12.07;;;;;;;16.41;73.67;100158.72;1742432;81;21591;-66
2022/05/20 07:55:53;;;;;;;15.53;10.08;;;;;;;16.44;74.04;100152.77;1741356;80;21054;-66
2022/05/20 07:58:23;;;;;;;12.95;8.88;;;;;;;16.48;74.65;100156.55;1720024;81;21119;-65
2022/05/20 08:00:50;;;;;;;19.52;10.48;;;;;;;16.49;74.65;100146.50;1741445;82;21006;-66
2022/05/20 08:04:52;;;;;;;18.12;9.98;;;;;;;16.51;74.81;100145.11;1741785;80;20972;-75
2022/05/20 08:05:44;;;;;;;12.47;8.65;;;;;;;16.57;74.97;100137.22;1740985;82;21570;-68
2022/05/20 08:08:11;;;;;;;16.37;9.83;;;;;;;16.68;75.00;100133.95;1742648;82;21094;-67
2022/05/20 08:10:39;;;;;;;16.27;8.98;;;;;;;16.79;74.38;100138.22;1740364;82;21346;-69
2022/05/20 08:13:06;;;;;;;19.80;8.90;;;;;;;16.86;73.81;100128.41;1744256;80;20972;-68
2022/05/20 08:15:34;;;;;;;12.23;8.18;;;;;;;16.88;72.39;100131.11;1741264;82;21000;-69
2022/05/20 08:18:01;;;;;;;14.18;8.05;;;;;;;16.91;71.75;100131.11;1742330;82;20936;-67
2022/05/20 08:20:30;;;;;;;18.45;8.08;;;;;;;16.93;71.93;100127.00;1741366;82;20990;-69
2022/05/20 08:22:58;;;;;;;17.12;8.83;;;;;;;16.99;71.80;100129.14;1742916;81;20944;-68
2022/05/20 08:25:25;;;;;;;15.72;8.90;;;;;;;17.04;71.64;100116.07;1744056;80;20967;-66
2022/05/20 08:27:52;;;;;;;14.40;8.33;;;;;;;17.08;71.80;100117.12;1741598;82;21008;-68
2022/05/20 08:30:23;;;;;;;22.45;9.25;;;;;;;17.17;71.04;100120.33;1746372;80;21692;-67
2022/05/20 08:32:49;;;;;;;16.60;8.98;;;;;;;17.26;70.74;100106.97;1741705;82;20999;-67
2022/05/20 08:35:17;;;;;;;13.10;8.98;;;;;;;17.33;71.23;100111.52;1710739;82;21224;-68
2022/05/20 08:37:45;;;;;;;16.00;10.28;;;;;;;17.33;70.63;100110.97;1742498;81;20984;-65
2022/05/20 08:40:18;;;;;;;15.28;9.63;;;;;;;17.33;70.04;100113.69;1744932;80;21092;-66
2022/05/20 08:42:44;;;;;;;14.20;9.95;;;;;;;17.37;68.18;100112.02;1739358;82;21067;-69
2022/05/20 08:45:13;;;;;;;21.80;12.80;;;;;;;17.34;67.53;100109.06;1736022;81;21563;-66
2022/05/20 08:47:47;;;;;;;16.95;12.33;;;;;;;17.34;67.39;100100.91;1729359;82;21141;-68
2022/05/20 08:50:30;;;;;;;22.90;13.50;;;;;;;17.35;67.04;100095.20;1722292;82;21495;-68
2022/05/20 08:52:58;;;;;;;24.10;13.48;;;;;;;17.37;66.45;100090.81;1718600;82;21007;-68
2022/05/20 08:55:25;;;;;;;20.92;12.78;;;;;;;17.40;66.07;100088.91;1721322;82;21053;-69
2022/05/20 08:58:01;;;;;;;19.07;12.82;;;;;;;17.43;65.72;100085.60;1723706;82;21078;-68
2022/05/20 09:00:29;;;;;;;16.82;12.70;;;;;;;17.42;65.43;100083.43;1718551;82;21251;-69
2022/05/20 09:02:56;;;;;;;23.42;13.35;;;;;;;17.43;65.48;100087.77;1728578;82;21068;-71
2022/05/20 09:05:33;;;;;;;19.55;12.40;;;;;;;17.48;65.60;100081.48;1729331;82;21108;-64
2022/05/20 09:08:19;;;;;;;21.82;13.62;;;;;;;17.57;65.21;100074.32;1734728;82;21006;-68
2022/05/20 09:10:50;;;;;;;20.65;13.25;;;;;;;17.61;64.69;100071.31;1721536;82;21017;-70
2022/05/20 09:16:22;;;;;;;22.30;13.80;;;;;;;17.80;64.01;100065.95;1726968;82;20988;-67
2022/05/20 09:19:05;;;;;;;18.10;12.20;;;;;;;17.89;63.85;100058.78;1732992;82;21034;-73
2022/05/20 09:21:38;;;;;;;21.90;12.90;;;;;;;17.98;63.21;100054.90;1714316;83;21345;-68
2022/05/20 09:24:10;;;;;;;15.90;12.65;;;;;;;18.07;62.62;100049.89;1694408;83;21101;-69
2022/05/20 09:26:42;;;;;;;19.85;12.13;;;;;;;18.22;62.41;100057.06;1717038;83;21844;-69
2022/05/20 09:29:13;;;;;;;15.07;8.37;;;;;;;18.49;58.25;100046.34;1723617;82;21597;-68
2022/05/20 09:31:47;;;;;;;13.30;8.70;;;;;;;18.49;58.25;100046.34;1723541;82;21802;-65
2022/05/20 09:34:35;;;;;;;16.00;7.78;;;;;;;18.67;56.93;100049.66;1714443;83;21030;-66
2022/05/20 09:37:16;;;;;;;17.40;8.28;;;;;;;18.86;54.87;100048.29;1715488;83;21526;-66
2022/05/20 09:39:45;;;;;;;11.90;7.83;;;;;;;18.96;53.31;100049.50;1716859;83;21286;-68
2022/05/20 09:42:17;;;;;;;11.70;8.83;;;;;;;19.03;51.29;100040.41;1718676;82;21100;-63
2022/05/20 09:44:54;;;;;;;11.73;7.37;;;;;;;19.14;51.73;100034.21;1726141;81;21027;-64
2022/05/20 09:47:36;;;;;;;12.60;7.97;;;;;;;19.28;51.30;100037.79;1719636;82;21034;-65
2022/05/20 09:50:33;;;;;;;13.70;7.08;;;;;;;19.36;50.51;100035.77;1733119;80;21083;-66
2022/05/20 09:53:12;;;;;;;9.33;6.30;;;;;;;19.50;50.38;100029.81;1781045;80;21225;-64
2022/05/20 09:55:43;;;;;;;18.05;7.20;;;;;;;19.63;49.19;100025.47;1772217;80;21003;-64
2022/05/20 09:58:21;;;;;;;12.83;5.90;;;;;;;19.73;48.57;100024.47;1735199;82;21550;-68
2022/05/20 10:00:57;;;;;;;12.47;4.47;;;;;;;19.85;47.28;100025.61;1745898;82;21508;-68
2022/05/20 10:03:43;;;;;;;8.10;4.62;;;;;;;19.95;45.98;100025.38;1720686;82;21003;-65
2022/05/20 10:06:38;;;;;;;11.00;4.80;;;;;;;20.07;43.76;100030.35;1748044;81;22112;-68
2022/05/20 10:09:33;;;;;;;10.03;3.92;;;;;;;20.20;43.63;100022.70;1749895;82;21520;-68
2022/05/20 10:12:14;;;;;;;9.55;3.80;;;;;;;20.38;43.06;100027.84;1742002;82;21468;-69
2022/05/20 10:15:14;;;;;;;5.28;3.47;;;;;;;20.60;42.35;100023.77;1747086;82;20986;-65
2022/05/20 10:18:12;;;;;;;7.20;3.92;;;;;;;20.78;41.97;100013.23;1747215;82;21108;-68
2022/05/20 10:21:09;;;;;;;6.67;2.92;;;;;;;20.95;41.59;100020.78;1764257;80;21108;-71
2022/05/20 10:24:15;;;;;;;13.25;3.17;;;;;;;21.14;40.26;100011.05;1718462;82;20967;-69
2022/05/20 10:48:36;;;;;;;3.08;2.77;;;;;;;22.79;34.90;99973.71;1754508;80;20966;-80
2022/05/20 10:51:26;;;;;;;2.72;2.05;;;;;;;22.95;33.87;99965.80;1786196;80;21147;-77
2022/05/20 10:54:16;;;;;;;5.15;2.22;;;;;;;23.02;32.66;99960.63;1793494;78;20997;-76
2022/05/20 10:56:56;;;;;;;4.53;2.60;;;;;;;23.03;32.18;99944.39;1749874;80;21077;-72
2022/05/20 10:59:43;;;;;;;9.03;2.80;;;;;;;23.08;32.54;99940.09;1747841;82;20985;-81
2022/05/20 11:03:01;;;;;;;4.80;2.85;;;;;;;23.08;31.43;99940.09;1744795;82;21007;-72
2022/05/20 11:06:03;;;;;;;3.77;2.77;;;;;;;23.08;32.32;99927.75;1735069;82;21213;-77
2022/05/20 11:08:44;;;;;;;13.55;9.63;;;;;;;23.14;32.24;99927.83;1748202;82;20983;-80
2022/05/20 11:11:50;;;;;;;13.62;8.13;;;;;;;23.11;33.42;99919.45;1747973;82;20936;-81
2022/05/20 11:14:28;;;;;;;7.90;5.33;;;;;;;23.09;33.84;99904.67;1732812;82;20963;-74
2022/05/20 11:17:22;;;;;;;7.47;3.85;;;;;;;23.10;33.95;99900.80;1744660;82;21018;-75
2022/05/20 11:20:09;;;;;;;9.13;3.85;;;;;;;23.01;34.12;99899.47;1727739;81;21083;-78
2022/05/20 11:23:13;;;;;;;3.98;2.95;;;;;;;22.96;33.81;99891.97;1727375;82;20960;-75
2022/05/20 11:26:19;;;;;;;2.75;2.50;;;;;;;22.94;33.40;99892.84;1746647;82;21077;-76
2022/05/20 11:29:03;;;;;;;11.25;2.85;;;;;;;23.00;32.70;99888.25;1740969;82;21053;-75
2022/05/20 11:31:56;;;;;;;6.55;2.27;;;;;;;23.23;32.15;99886.06;1705285;82;21025;-75
2022/05/20 11:34:57;;;;;;;7.92;2.67;;;;;;;23.44;31.12;99873.25;1689517;85;21222;-73
2022/05/20 11:37:53;;;;;;;3.75;2.77;;;;;;;23.56;30.47;99876.65;1707592;82;21019;-84
2022/05/20 11:40:49;;;;;;;8.60;2.75;;;;;;;23.53;29.89;99867.71;1717271;83;20987;-78
2022/05/20 11:43:30;;;;;;;4.87;2.67;;;;;;;23.52;29.91;99868.03;1718258;82;21040;-77
2022/05/20 11:46:42;;;;;;;5.05;2.87;;;;;;;23.48;30.13;99861.03;1715720;83;21478;-75
2022/05/20 11:49:39;;;;;;;8.70;2.50;;;;;;;23.47;30.24;99853.92;1714799;82;21209;-76
2022/05/20 11:52:26;;;;;;;3.52;3.22;;;;;;;23.49;29.75;99851.66;1688694;85;21505;-77
2022/05/20 11:55:01;;;;;;;5.65;3.42;;;;;;;23.59;30.10;99851.85;1680950;84;20953;-77
2022/05/20 11:57:42;;;;;;;6.45;2.92;;;;;;;23.63;29.86;99844.55;1688653;85;20969;-74
2022/05/20 12:00:17;;;;;;;4.62;3.10;;;;;;;23.69;29.79;99842.63;1700186;82;21033;-70
2022/05/20 12:02:55;;;;;;;4.37;2.80;;;;;;;23.75;30.37;99837.19;1707821;82;21166;-75
2022/05/20 12:05:24;;;;;;;10.23;3.35;;;;;;;23.84;31.00;99830.25;1723348;82;21101;-78
2022/05/20 12:07:50;;;;;;;4.85;2.83;;;;;;;23.85;30.87;99825.00;1732373;82;21080;-74
2022/05/20 12:10:41;;;;;;;9.48;3.12;;;;;;;23.80;30.44;99828.75;1750037;81;20963;-78
2022/05/20 12:13:23;;;;;;;5.22;3.67;;;;;;;23.72;30.62;99821.95;1706220;83;21065;-77
2022/05/20 12:16:14;;;;;;;9.48;3.90;;;;;;;23.70;30.87;99818.72;1720091;82;21215;-85
2022/05/20 12:24:42;;;;;;;7.62;3.60;;;;;;;24.00;30.33;99813.98;1724559;82;21163;-86
2022/05/20 12:27:26;;;;;;;7.62;2.95;;;;;;;24.10;29.98;99806.13;1721652;82;21005;-78
2022/05/20 12:30:20;;;;;;;5.83;2.80;;;;;;;24.25;29.52;99798.67;1718589;83;21245;-85
2022/05/20 12:32:49;;;;;;;7.33;3.40;;;;;;;24.28;29.35;99802.67;1719949;82;20948;-78
2022/05/20 12:35:30;;;;;;;4.20;3.37;;;;;;;24.37;29.51;99786.09;1720784;82;20940;-82
2022/05/20 12:38:01;;;;;;;3.80;3.17;;;;;;;24.52;29.36;99784.08;1705201;83;21523;-80
2022/05/20 12:43:05;;;;;;;3.72;3.00;;;;;;;24.80;28.89;99780.11;1711093;81;26890;-75
2022/05/20 12:45:50;;;;;;;4.65;3.05;;;;;;;24.81;29.01;99769.34;1721082;82;21504;-75
2022/05/20 12:48:18;;;;;;;7.67;3.83;;;;;;;24.84;28.95;99766.73;1719861;82;21497;-76